Time;durP1;ratioP1;P1;durP2;ratioP2;P2;SDS_P1;SDS_P2;PMS_P1;PMS_P2;Temp;Humidity;BMP_temperature;BMP_pressure;BME280_temperature;BME280_humidity;BME280_pressure;Samples;Min_cycle;Max_cycle;Signal;HPM_P1;HPM_P2
2022/04/17 00:01:57;;;;;;;9.43;5.95;;;5.60;96.90;;;;;;4938017;29;20043;-74
2022/04/17 00:04:22;;;;;;;8.50;5.97;;;5.50;97.40;;;;;;4920337;29;20123;-73
2022/04/17 00:06:48;;;;;;;8.43;6.57;;;5.40;97.70;;;;;;4930994;29;20133;-73
2022/04/17 00:09:14;;;;;;;9.10;6.45;;;5.30;98.10;;;;;;4937485;29;20043;-74
2022/04/17 00:11:42;;;;;;;8.50;5.70;;;5.20;98.40;;;;;;4937917;29;20139;-74
2022/04/17 00:14:10;;;;;;;10.10;6.22;;;5.10;98.60;;;;;;4953402;29;20110;-74
2022/04/17 00:16:37;;;;;;;9.73;6.60;;;5.10;99.00;;;;;;4936972;29;20055;-74
2022/04/17 00:19:02;;;;;;;8.30;5.97;;;5.10;99.20;;;;;;4937399;29;20075;-73
2022/04/17 00:21:28;;;;;;;7.25;5.53;;;5.00;99.40;;;;;;4953112;29;20450;-74
2022/04/17 00:23:54;;;;;;;9.25;6.85;;;4.90;99.50;;;;;;4937228;29;20043;-74
2022/04/17 00:26:22;;;;;;;9.45;6.95;;;4.90;99.70;;;;;;4953003;29;20046;-73
2022/04/17 00:28:48;;;;;;;7.85;5.97;;;4.80;99.90;;;;;;4934878;29;20043;-74
2022/04/17 00:31:16;;;;;;;8.57;6.53;;;4.80;99.90;;;;;;4932755;29;20043;-74
2022/04/17 00:33:47;;;;;;;7.65;6.57;;;4.70;99.90;;;;;;4937444;29;20035;-74
2022/04/17 00:36:12;;;;;;;8.90;6.88;;;4.70;99.90;;;;;;4937092;29;20086;-74
2022/04/17 00:38:38;;;;;;;9.02;7.20;;;4.70;99.90;;;;;;4936151;29;20379;-74
2022/04/17 00:41:09;;;;;;;9.10;7.07;;;4.70;99.90;;;;;;4937582;29;20039;-74
2022/04/17 00:43:46;;;;;;;9.35;6.75;;;4.70;99.90;;;;;;4952818;29;20051;-74
2022/04/17 00:46:18;;;;;;;10.93;8.20;;;4.70;99.90;;;;;;4928864;29;20070;-74
2022/04/17 00:48:52;;;;;;;9.20;6.82;;;4.60;99.90;;;;;;4918917;29;20562;-74
2022/04/17 00:51:18;;;;;;;9.68;7.00;;;4.60;99.90;;;;;;4933431;29;20047;-74
2022/04/17 00:53:45;;;;;;;10.10;7.47;;;4.60;99.90;;;;;;4936132;29;20043;-74
2022/04/17 00:56:13;;;;;;;10.65;7.40;;;4.60;99.90;;;;;;4936540;29;20091;-74
2022/04/17 00:58:39;;;;;;;8.15;7.15;;;4.50;99.90;;;;;;4951999;29;20528;-74
2022/04/17 01:01:05;;;;;;;10.48;8.10;;;4.50;99.90;;;;;;4952601;29;20043;-74
2022/04/17 01:03:30;;;;;;;10.70;8.38;;;4.40;99.90;;;;;;4936388;29;20043;-74
2022/04/17 01:06:01;;;;;;;10.07;7.30;;;4.40;99.90;;;;;;4936634;29;20035;-74
2022/04/17 01:08:34;;;;;;;10.52;7.40;;;4.30;99.90;;;;;;4935778;29;20043;-74
2022/04/17 01:11:00;;;;;;;11.45;7.38;;;4.20;99.90;;;;;;4952161;28;20047;-73
2022/04/17 01:13:26;;;;;;;10.73;7.68;;;4.20;99.90;;;;;;4925490;29;20099;-74
2022/04/17 01:15:54;;;;;;;10.75;8.30;;;4.10;99.90;;;;;;4936440;29;20051;-74
2022/04/17 01:18:19;;;;;;;9.88;7.70;;;4.00;99.90;;;;;;4936016;29;20142;-73
2022/04/17 01:20:45;;;;;;;10.55;8.07;;;4.00;99.90;;;;;;4936437;29;20569;-73
2022/04/17 01:28:40;;;;;;;11.35;7.40;;;3.90;99.90;;;;;;4952005;29;20050;-73
2022/04/17 01:31:06;;;;;;;8.20;7.18;;;3.80;99.90;;;;;;4936044;29;20040;-74
2022/04/17 01:33:31;;;;;;;11.25;8.15;;;3.80;99.90;;;;;;4936297;29;20050;-74
2022/04/17 01:35:57;;;;;;;11.05;8.52;;;3.80;99.90;;;;;;4936083;29;20047;-74
2022/04/17 01:38:23;;;;;;;9.55;7.40;;;3.80;99.90;;;;;;4920928;29;20043;-73
2022/04/17 01:40:48;;;;;;;10.65;8.10;;;3.80;99.90;;;;;;4948293;29;20055;-73
2022/04/17 01:43:14;;;;;;;10.82;7.85;;;3.80;99.90;;;;;;4936567;29;20086;-73
2022/04/17 01:45:39;;;;;;;11.25;7.57;;;3.80;99.90;;;;;;4927066;29;20075;-73
2022/04/17 01:48:05;;;;;;;9.02;8.10;;;3.80;99.90;;;;;;4945657;29;20490;-74
2022/04/17 01:50:32;;;;;;;9.68;8.27;;;3.80;99.90;;;;;;4935835;29;20059;-74
2022/04/17 01:53:01;;;;;;;12.02;7.63;;;4.00;99.90;;;;;;4928425;29;20051;-73
2022/04/17 01:55:30;;;;;;;9.95;7.50;;;4.00;99.90;;;;;;4916927;29;20040;-74
2022/04/17 01:57:56;;;;;;;11.25;7.90;;;4.00;99.90;;;;;;4928063;29;20047;-74
2022/04/17 02:00:22;;;;;;;11.07;7.90;;;3.90;99.90;;;;;;4935704;29;20124;-73
2022/04/17 02:02:48;;;;;;;11.88;7.50;;;3.90;99.90;;;;;;4936403;29;20035;-74
2022/04/17 02:05:14;;;;;;;10.52;7.65;;;3.80;99.90;;;;;;4925847;29;20071;-74
2022/04/17 02:07:40;;;;;;;11.10;7.95;;;3.80;99.90;;;;;;4925973;29;20046;-74
2022/04/17 02:10:06;;;;;;;10.80;7.75;;;3.80;99.90;;;;;;4935411;29;20039;-73
2022/04/17 02:12:33;;;;;;;11.95;8.38;;;3.70;99.90;;;;;;4935770;29;20090;-74
2022/04/17 02:15:00;;;;;;;9.45;7.95;;;3.60;99.90;;;;;;4936068;29;20040;-74
2022/04/17 02:17:25;;;;;;;11.43;8.50;;;3.60;99.90;;;;;;4928810;29;20059;-73
2022/04/17 02:19:51;;;;;;;10.80;8.40;;;3.50;99.90;;;;;;4931323;29;20032;-73
2022/04/17 02:22:17;;;;;;;11.55;8.35;;;3.50;99.90;;;;;;4938598;29;20486;-73
2022/04/17 02:24:43;;;;;;;11.35;8.00;;;3.50;99.90;;;;;;4939493;29;20069;-74
2022/04/17 02:27:08;;;;;;;11.70;8.35;;;3.40;99.90;;;;;;4935402;29;20065;-74
2022/04/17 02:29:34;;;;;;;11.95;8.45;;;3.50;99.90;;;;;;4940285;29;20046;-73
2022/04/17 02:32:00;;;;;;;12.65;8.45;;;3.40;99.90;;;;;;4955268;29;20071;-73
2022/04/17 02:34:25;;;;;;;10.70;8.05;;;3.40;99.90;;;;;;4954412;29;20035;-74
2022/04/17 02:36:51;;;;;;;12.00;8.32;;;3.40;99.90;;;;;;4954445;29;20118;-74
2022/04/17 02:39:17;;;;;;;11.40;8.68;;;3.30;99.90;;;;;;4954460;29;20038;-73
2022/04/17 02:41:42;;;;;;;11.70;8.68;;;3.30;99.90;;;;;;4955099;29;20477;-74
2022/04/17 02:44:08;;;;;;;13.38;9.43;;;3.30;99.90;;;;;;4954802;29;20129;-74
2022/04/17 02:49:17;;;;;;;12.55;8.80;;;3.30;99.90;;;;;;4937834;29;20206;-73
2022/04/17 02:51:43;;;;;;;11.93;8.55;;;3.20;99.90;;;;;;4938995;29;20553;-73
2022/04/17 02:54:08;;;;;;;11.68;8.45;;;3.10;99.90;;;;;;4938954;29;20043;-73
2022/04/17 02:56:34;;;;;;;16.85;9.27;;;3.10;99.90;;;;;;4938803;29;20141;-74
2022/04/17 02:59:00;;;;;;;12.13;9.10;;;3.10;99.90;;;;;;4934113;29;20039;-73
2022/04/17 03:06:54;;;;;;;12.50;9.00;;;2.90;99.90;;;;;;4937472;29;20059;-73
2022/04/17 03:09:19;;;;;;;11.80;8.82;;;2.90;99.90;;;;;;4954441;29;20486;-73
2022/04/17 03:11:45;;;;;;;11.65;8.38;;;2.80;99.90;;;;;;4938745;29;20047;-74
2022/04/17 03:14:11;;;;;;;11.10;8.77;;;2.90;99.90;;;;;;4954815;29;20126;-73
2022/04/17 03:16:37;;;;;;;12.73;9.13;;;2.80;99.90;;;;;;4938697;29;20433;-73
2022/04/17 03:19:02;;;;;;;11.18;8.25;;;2.70;99.90;;;;;;4953889;29;20036;-73
2022/04/17 03:21:28;;;;;;;11.55;8.45;;;2.80;99.90;;;;;;4954003;29;20500;-73
2022/04/17 03:23:56;;;;;;;10.77;8.68;;;2.80;99.90;;;;;;4938354;29;20421;-73
2022/04/17 03:26:22;;;;;;;10.63;8.38;;;2.90;99.90;;;;;;4938556;29;20046;-73
2022/04/17 03:28:47;;;;;;;11.60;8.48;;;3.00;99.90;;;;;;4937668;29;20417;-73
2022/04/17 03:31:16;;;;;;;10.52;8.15;;;3.00;99.90;;;;;;4954022;29;20050;-73
2022/04/17 03:33:41;;;;;;;11.30;9.07;;;3.10;99.90;;;;;;4941139;28;20048;-73
2022/04/17 03:36:07;;;;;;;11.80;7.50;;;3.20;99.90;;;;;;4950790;29;20054;-73
2022/04/17 03:38:34;;;;;;;11.93;8.35;;;3.20;99.90;;;;;;4938430;29;20548;-73
2022/04/17 03:40:59;;;;;;;11.27;8.73;;;3.20;99.90;;;;;;4938006;29;20042;-73
2022/04/17 03:43:25;;;;;;;11.40;9.10;;;3.20;99.90;;;;;;4938317;29;20093;-73
2022/04/17 03:45:51;;;;;;;11.75;8.38;;;3.10;99.90;;;;;;4938550;29;20134;-73
2022/04/17 03:48:18;;;;;;;11.80;8.75;;;3.00;99.90;;;;;;4937540;29;20049;-73
2022/04/17 03:50:44;;;;;;;10.93;8.57;;;2.90;99.90;;;;;;4925341;29;20387;-73
2022/04/17 03:53:09;;;;;;;12.20;9.13;;;2.80;99.90;;;;;;4918852;29;20058;-73
2022/04/17 03:55:36;;;;;;;12.40;9.43;;;2.80;99.90;;;;;;4918719;29;20536;-73
2022/04/17 03:58:04;;;;;;;12.05;8.85;;;2.70;99.90;;;;;;4944667;29;20054;-73
2022/04/17 04:00:33;;;;;;;12.40;8.90;;;2.60;99.90;;;;;;4953282;29;20106;-73
2022/04/17 04:02:59;;;;;;;13.25;8.35;;;2.60;99.90;;;;;;4937787;29;20038;-73
2022/04/17 04:05:25;;;;;;;12.38;9.48;;;2.50;99.90;;;;;;4937309;29;20061;-73
2022/04/17 04:07:51;;;;;;;10.07;8.00;;;2.60;99.90;;;;;;4953486;29;20114;-74
2022/04/17 04:10:16;;;;;;;9.90;8.10;;;2.50;99.90;;;;;;4937262;29;20090;-73
2022/04/17 04:12:43;;;;;;;12.10;9.18;;;2.50;99.90;;;;;;4953614;29;20472;-73
2022/04/17 04:15:08;;;;;;;10.88;8.88;;;2.50;99.90;;;;;;4937470;29;20082;-73
2022/04/17 04:17:34;;;;;;;13.02;9.80;;;2.50;99.90;;;;;;4936974;29;20078;-73
2022/04/17 04:20:01;;;;;;;14.63;8.68;;;2.40;99.90;;;;;;4937136;29;20406;-73
2022/04/17 04:22:27;;;;;;;10.80;8.98;;;2.40;99.90;;;;;;4952716;29;20028;-73
2022/04/17 04:24:55;;;;;;;14.80;9.43;;;2.40;99.90;;;;;;4937016;29;20040;-73
2022/04/17 04:30:05;;;;;;;12.50;9.27;;;2.30;99.90;;;;;;4953143;29;20134;-73
2022/04/17 04:32:31;;;;;;;12.90;9.77;;;2.30;99.90;;;;;;4936979;29;20057;-73
2022/04/17 04:35:01;;;;;;;12.13;9.50;;;2.30;99.90;;;;;;4937050;29;20118;-73
2022/04/17 04:37:27;;;;;;;12.32;8.98;;;2.20;99.90;;;;;;4952515;29;20458;-73
2022/04/17 04:39:53;;;;;;;11.50;8.77;;;2.20;99.90;;;;;;4952748;29;20117;-73
2022/04/17 04:42:22;;;;;;;13.90;9.68;;;2.20;99.90;;;;;;4952663;29;20114;-73
2022/04/17 04:46:06;;;;;;;13.32;9.38;;;2.20;99.90;;;;;;4937052;29;20498;-74
2022/04/17 04:47:34;;;;;;;11.35;9.52;;;2.20;99.90;;;;;;4951998;29;20330;-73
2022/04/17 04:50:00;;;;;;;11.57;9.02;;;2.10;99.90;;;;;;4952520;29;20070;-73
2022/04/17 04:52:25;;;;;;;15.85;11.15;;;2.10;99.90;;;;;;4952869;29;20339;-73
2022/04/17 04:54:51;;;;;;;14.73;10.95;;;2.00;99.90;;;;;;4937174;29;20086;-73
2022/04/17 04:57:16;;;;;;;11.55;9.88;;;2.10;99.90;;;;;;4952306;29;20039;-74
2022/04/17 04:59:42;;;;;;;12.00;9.88;;;2.00;99.90;;;;;;4952278;29;20506;-74
2022/04/17 05:02:07;;;;;;;13.02;9.77;;;2.00;99.90;;;;;;4952929;29;20042;-73
2022/04/17 05:04:33;;;;;;;15.10;10.15;;;2.00;99.90;;;;;;4936437;29;20043;-74
2022/04/17 05:06:59;;;;;;;12.63;9.30;;;2.10;99.90;;;;;;4935963;29;20070;-74
2022/04/17 05:09:25;;;;;;;12.73;9.25;;;2.20;99.90;;;;;;4952347;29;20493;-74
2022/04/17 05:11:50;;;;;;;11.95;9.32;;;2.40;99.90;;;;;;4936714;29;20138;-73
2022/04/17 05:14:19;;;;;;;11.55;9.88;;;2.40;99.90;;;;;;4953697;29;20074;-73
2022/04/17 05:16:44;;;;;;;13.13;9.45;;;2.40;99.90;;;;;;4951833;29;20142;-73
2022/04/17 05:19:20;;;;;;;13.75;10.15;;;2.50;99.90;;;;;;4935995;29;20141;-74
2022/04/17 05:21:47;;;;;;;13.30;9.77;;;2.50;99.90;;;;;;4936490;29;20497;-73
2022/04/17 05:24:14;;;;;;;12.27;9.10;;;2.60;99.90;;;;;;4936248;29;20081;-75
2022/04/17 05:26:40;;;;;;;15.52;10.07;;;2.60;99.90;;;;;;4952069;29;20079;-74
2022/04/17 05:29:05;;;;;;;12.85;10.23;;;2.70;99.90;;;;;;4936003;29;20074;-73
2022/04/17 05:31:32;;;;;;;12.75;9.85;;;2.70;99.90;;;;;;4952200;29;20501;-74
2022/04/17 05:33:58;;;;;;;11.50;9.45;;;2.70;99.90;;;;;;4952123;29;20047;-73
2022/04/17 05:36:23;;;;;;;13.63;10.50;;;2.80;99.90;;;;;;4931796;29;20062;-74
2022/04/17 05:38:49;;;;;;;15.13;9.68;;;2.80;99.90;;;;;;4935947;29;20394;-74
2022/04/17 05:41:15;;;;;;;13.88;10.55;;;2.90;99.90;;;;;;4952358;29;20494;-73
2022/04/17 05:43:41;;;;;;;14.35;10.35;;;2.90;99.90;;;;;;4936090;29;20116;-74
2022/04/17 05:46:06;;;;;;;12.07;9.35;;;3.10;99.90;;;;;;4951879;29;20035;-73
2022/04/17 05:48:32;;;;;;;13.40;8.77;;;3.10;99.90;;;;;;4951881;29;20093;-73
2022/04/17 05:50:58;;;;;;;12.38;9.65;;;3.30;99.90;;;;;;4934446;29;20040;-74
2022/04/17 05:53:24;;;;;;;12.05;9.10;;;3.40;99.90;;;;;;4949175;29;20402;-74
2022/04/17 05:55:49;;;;;;;12.20;9.95;;;3.50;99.90;;;;;;4930867;29;20051;-74
2022/04/17 05:58:15;;;;;;;12.85;10.27;;;3.70;99.90;;;;;;4953288;29;20082;-75
2022/04/17 06:00:44;;;;;;;14.00;10.50;;;3.80;99.90;;;;;;4924228;29;20040;-74
2022/04/17 06:03:10;;;;;;;13.60;9.65;;;4.00;99.90;;;;;;4940107;29;20050;-77
2022/04/17 06:05:36;;;;;;;13.07;9.98;;;4.10;99.90;;;;;;4926073;29;20394;-76
2022/04/17 06:08:05;;;;;;;11.77;9.50;;;4.10;99.90;;;;;;4930280;29;20039;-76
2022/04/17 06:10:31;;;;;;;13.32;9.80;;;4.20;99.90;;;;;;4939447;29;20039;-76
2022/04/17 06:12:56;;;;;;;11.98;9.70;;;4.20;99.90;;;;;;4955440;29;20062;-74
2022/04/17 06:15:22;;;;;;;13.52;10.02;;;4.20;99.90;;;;;;4955393;29;20126;-76
2022/04/17 06:17:48;;;;;;;12.30;9.95;;;4.50;99.90;;;;;;4939215;29;20043;-73
2022/04/17 06:20:14;;;;;;;13.65;10.07;;;4.60;99.90;;;;;;4937819;29;20040;-75
2022/04/17 06:22:41;;;;;;;13.48;10.23;;;4.60;99.90;;;;;;4920928;29;20058;-75
2022/04/17 06:25:11;;;;;;;13.02;9.63;;;4.70;99.90;;;;;;4920935;29;20058;-76
2022/04/17 06:27:50;;;;;;;12.45;9.85;;;4.80;99.90;;;;;;4948206;29;20049;-75
2022/04/17 06:30:18;;;;;;;12.38;9.38;;;4.90;99.90;;;;;;4939416;29;20040;-75
2022/04/17 06:32:44;;;;;;;13.18;9.45;;;5.00;99.90;;;;;;4940262;29;20074;-75
2022/04/17 06:35:15;;;;;;;13.18;9.93;;;5.10;99.90;;;;;;4932691;29;20043;-76
2022/04/17 06:37:50;;;;;;;13.40;9.65;;;5.20;99.90;;;;;;4935720;29;20435;-76
2022/04/17 06:40:32;;;;;;;12.93;9.68;;;5.40;99.90;;;;;;4936930;29;20047;-75
2022/04/17 06:43:05;;;;;;;12.07;9.40;;;5.60;99.90;;;;;;4924316;29;20044;-76
2022/04/17 06:45:33;;;;;;;13.70;9.57;;;5.70;99.90;;;;;;4950581;28;20074;-75
2022/04/17 06:48:21;;;;;;;13.23;9.73;;;5.70;99.90;;;;;;4922995;29;20052;-76
2022/04/17 06:50:52;;;;;;;12.15;9.93;;;5.90;99.90;;;;;;4932435;29;20098;-75
2022/04/17 06:53:21;;;;;;;13.52;10.27;;;5.90;99.90;;;;;;4923610;28;20122;-75
2022/04/17 06:55:49;;;;;;;10.75;8.95;;;6.10;99.90;;;;;;4933745;28;20039;-75
2022/04/17 06:58:17;;;;;;;10.98;8.98;;;6.20;99.90;;;;;;4946193;29;20090;-75
2022/04/17 07:00:43;;;;;;;13.88;10.77;;;6.30;99.90;;;;;;4932174;29;20540;-75
2022/04/17 07:03:09;;;;;;;14.18;10.55;;;6.50;99.90;;;;;;4929338;29;20129;-75
2022/04/17 07:05:35;;;;;;;13.18;9.45;;;6.60;99.90;;;;;;4931454;29;20046;-75
2022/04/17 07:08:04;;;;;;;10.75;9.23;;;6.80;99.90;;;;;;4923438;29;20114;-75
2022/04/17 07:10:31;;;;;;;12.35;9.00;;;6.80;99.90;;;;;;4929201;29;20043;-75
2022/04/17 07:13:00;;;;;;;13.05;9.73;;;7.00;99.90;;;;;;4923130;28;20055;-75
2022/04/17 07:15:26;;;;;;;12.23;8.60;;;7.20;99.90;;;;;;4923702;29;20130;-75
2022/04/17 07:17:53;;;;;;;10.05;8.98;;;7.20;99.90;;;;;;4927414;29;20091;-76
2022/04/17 07:20:23;;;;;;;11.35;9.70;;;7.30;99.90;;;;;;4929022;28;20508;-75
2022/04/17 07:22:52;;;;;;;11.38;10.00;;;7.40;99.90;;;;;;4934149;29;20108;-75
2022/04/17 07:25:19;;;;;;;11.45;9.15;;;7.50;99.90;;;;;;4929825;29;20502;-75
2022/04/17 07:27:48;;;;;;;10.55;8.70;;;7.60;99.90;;;;;;4928725;29;20098;-75
2022/04/17 07:30:39;;;;;;;10.55;8.30;;;7.70;99.90;;;;;;4933836;29;20183;-77
2022/04/17 07:33:05;;;;;;;10.52;7.85;;;7.80;99.90;;;;;;4943396;28;20426;-77
2022/04/17 07:35:37;;;;;;;12.63;9.05;;;8.00;99.90;;;;;;4967789;28;20104;-76
2022/04/17 07:38:05;;;;;;;14.40;9.13;;;8.10;99.90;;;;;;4923486;29;20050;-76
2022/04/17 07:40:33;;;;;;;11.02;8.18;;;8.10;99.90;;;;;;4946608;28;20040;-76
2022/04/17 07:43:04;;;;;;;10.95;8.13;;;8.20;99.90;;;;;;4932209;29;20043;-75
2022/04/17 07:45:31;;;;;;;11.85;8.82;;;8.30;99.90;;;;;;4928247;29;20050;-76
2022/04/17 07:47:57;;;;;;;10.75;8.48;;;8.40;99.60;;;;;;4928296;29;20442;-75
2022/04/17 07:50:25;;;;;;;10.82;7.47;;;8.60;98.80;;;;;;4927064;29;20105;-76
2022/04/17 07:52:53;;;;;;;10.18;8.07;;;8.60;98.40;;;;;;4950762;29;20043;-75
2022/04/17 07:55:30;;;;;;;9.38;8.38;;;8.70;97.70;;;;;;4937700;29;20051;-76
2022/04/17 07:58:12;;;;;;;10.38;8.07;;;8.80;97.70;;;;;;4937836;29;20126;-75
2022/04/17 08:00:45;;;;;;;9.88;7.00;;;9.00;97.50;;;;;;4925256;29;20524;-76
2022/04/17 08:03:20;;;;;;;10.15;7.70;;;9.10;98.00;;;;;;4932186;28;20054;-76
2022/04/17 08:06:11;;;;;;;9.50;7.72;;;9.20;97.70;;;;;;4930109;29;20082;-77
2022/04/17 08:08:55;;;;;;;8.65;7.35;;;9.40;96.40;;;;;;4930428;29;20098;-76
2022/04/17 08:11:34;;;;;;;8.35;6.43;;;9.60;97.00;;;;;;4927610;29;20118;-78
2022/04/17 08:14:24;;;;;;;9.18;6.65;;;9.70;95.70;;;;;;4941665;29;20504;-78
2022/04/17 08:16:48;;;;;;;8.27;6.45;;;9.80;94.80;;;;;;4951568;29;20414;-73
2022/04/17 08:19:16;;;;;;;8.35;6.38;;;9.90;93.90;;;;;;4935870;29;20043;-75
2022/04/17 08:21:43;;;;;;;7.80;5.43;;;10.10;92.80;;;;;;4950855;28;20042;-77
2022/04/17 08:24:09;;;;;;;6.90;5.25;;;10.30;91.80;;;;;;4922201;29;20487;-78
2022/04/17 08:26:43;;;;;;;7.30;5.70;;;10.40;92.20;;;;;;4936572;29;20031;-75
2022/04/17 08:29:24;;;;;;;7.63;5.63;;;10.70;93.50;;;;;;4936289;29;20039;-76
2022/04/17 08:31:56;;;;;;;6.63;5.82;;;11.30;93.40;;;;;;4935279;29;20387;-74
2022/04/17 08:34:23;;;;;;;7.32;5.93;;;12.40;91.20;;;;;;4928374;29;20047;-74
2022/04/17 08:36:54;;;;;;;10.70;5.60;;;13.60;91.10;;;;;;4929306;29;20395;-77
2022/04/17 08:39:21;;;;;;;7.82;5.50;;;14.60;79.30;;;;;;4926182;29;20047;-77
2022/04/17 08:41:58;;;;;;;6.60;5.20;;;15.30;79.00;;;;;;4922603;29;20115;-77
2022/04/17 08:44:28;;;;;;;6.72;5.13;;;16.10;74.60;;;;;;4926993;29;20047;-77
2022/04/17 08:46:54;;;;;;;6.15;4.85;;;16.90;71.10;;;;;;4928575;29;20099;-76
2022/04/17 08:49:23;;;;;;;6.72;5.50;;;17.50;68.80;;;;;;4927290;29;20491;-77
2022/04/17 08:51:59;;;;;;;6.75;5.53;;;17.90;61.00;;;;;;4926339;29;20049;-77
2022/04/17 08:54:34;;;;;;;6.88;5.28;;;18.30;58.30;;;;;;4936143;29;20565;-77
2022/04/17 08:57:04;;;;;;;6.50;5.00;;;18.70;59.00;;;;;;4928283;29;20039;-77
2022/04/17 08:59:53;;;;;;;5.38;4.85;;;18.90;56.50;;;;;;4950273;29;20090;-78
2022/04/17 09:02:35;;;;;;;6.30;5.03;;;19.10;53.40;;;;;;4939946;29;20051;-79
2022/04/17 09:05:24;;;;;;;6.28;5.20;;;19.10;51.30;;;;;;4939694;29;20051;-79
2022/04/17 09:08:22;;;;;;;6.70;5.03;;;19.00;47.10;;;;;;4928266;29;20056;-79
2022/04/17 09:11:11;;;;;;;7.15;5.40;;;19.10;50.70;;;;;;4930135;29;20043;-79
2022/04/17 09:13:53;;;;;;;5.07;4.53;;;19.50;51.60;;;;;;4932047;29;20043;-79
2022/04/17 09:16:43;;;;;;;7.50;5.68;;;19.60;49.90;;;;;;4938895;29;20526;-78
2022/04/17 09:19:28;;;;;;;7.30;5.35;;;19.50;48.90;;;;;;4948598;29;20311;-79
2022/04/17 09:22:01;;;;;;;6.10;5.40;;;19.60;48.90;;;;;;4933555;29;20039;-80
2022/04/17 09:24:47;;;;;;;5.60;4.97;;;19.80;50.30;;;;;;4910641;29;20127;-80
2022/04/17 09:28:02;;;;;;;5.35;4.70;;;20.10;50.20;;;;;;4951162;28;20438;-80
2022/04/17 09:30:57;;;;;;;;;;;20.30;43.80;;;;;;4946941;29;20051;-80
2022/04/17 09:33:52;;;;;;;;;;;;;;;;;;;;;
2022/04/17 09:36:58;;;;;;;7.38;4.88;;;20.00;47.70;;;;;;4932739;29;20062;-80
2022/04/17 09:39:31;;;;;;;5.40;4.50;;;20.20;48.30;;;;;;4930404;23;20087;-77
2022/04/17 09:41:58;;;;;;;5.55;4.40;;;20.50;48.70;;;;;;4949805;29;20039;-77
2022/04/17 09:44:47;;;;;;;5.60;5.10;;;20.80;48.50;;;;;;4951450;29;20039;-77
2022/04/17 09:47:21;;;;;;;7.38;4.80;;;21.00;42.80;;;;;;4935841;29;20046;-76
2022/04/17 09:50:03;;;;;;;5.13;4.53;;;20.80;44.10;;;;;;4938299;29;20127;-77
2022/04/17 09:52:31;;;;;;;4.83;4.37;;;20.80;42.70;;;;;;4905560;29;20035;-77
2022/04/17 09:55:04;;;;;;;4.53;4.07;;;20.70;45.40;;;;;;4947426;29;20070;-77
2022/04/17 09:57:31;;;;;;;4.82;4.22;;;20.70;44.40;;;;;;4922704;29;20097;-77
2022/04/17 10:00:06;;;;;;;5.50;4.68;;;20.50;44.20;;;;;;4922004;29;20199;-77
2022/04/17 10:02:32;;;;;;;5.60;4.63;;;20.30;43.50;;;;;;4926369;29;20505;-78
2022/04/17 10:05:00;;;;;;;7.30;4.70;;;20.00;45.10;;;;;;4916922;29;20082;-77
2022/04/17 10:07:27;;;;;;;5.13;4.63;;;20.10;45.30;;;;;;4923470;29;20040;-76
2022/04/17 10:09:53;;;;;;;7.10;4.88;;;20.20;44.80;;;;;;4914650;29;20048;-78
2022/04/17 10:12:19;;;;;;;6.20;5.25;;;20.40;42.20;;;;;;4914883;29;20046;-78
2022/04/17 10:14:50;;;;;;;5.55;4.82;;;20.30;44.90;;;;;;4898629;29;20059;-76
2022/04/17 10:17:23;;;;;;;5.47;4.35;;;20.60;45.10;;;;;;4914980;29;20096;-76
2022/04/17 10:19:50;;;;;;;5.30;4.78;;;20.80;44.10;;;;;;4914065;29;20376;-76
2022/04/17 10:22:21;;;;;;;5.07;4.38;;;21.00;44.70;;;;;;4945673;29;20055;-76
2022/04/17 10:24:51;;;;;;;5.18;4.28;;;21.20;43.10;;;;;;4945872;29;20096;-77
2022/04/17 10:27:30;;;;;;;5.78;4.85;;;21.40;39.80;;;;;;4915354;29;20044;-76
2022/04/17 10:30:03;;;;;;;5.30;4.80;;;21.10;41.90;;;;;;4913738;29;20051;-76
2022/04/17 10:32:47;;;;;;;5.18;4.50;;;21.10;42.90;;;;;;4913879;29;20047;-76
2022/04/17 10:35:32;;;;;;;6.03;4.90;;;21.20;43.80;;;;;;4913984;29;20048;-77
2022/04/17 10:38:28;;;;;;;5.55;4.43;;;21.50;43.30;;;;;;4913949;29;20115;-77
2022/04/17 10:40:59;;;;;;;4.47;4.07;;;21.70;42.10;;;;;;4913845;29;20032;-76
2022/04/17 10:43:34;;;;;;;5.03;4.53;;;21.60;42.50;;;;;;4901247;29;20051;-76
2022/04/17 10:46:11;;;;;;;5.20;4.70;;;22.00;40.10;;;;;;4905750;29;20044;-76
2022/04/17 10:48:47;;;;;;;5.53;5.00;;;22.10;39.10;;;;;;4947486;29;20040;-76
2022/04/17 10:51:30;;;;;;;6.85;5.35;;;22.20;36.50;;;;;;4922601;29;20095;-76
2022/04/17 10:54:01;;;;;;;5.30;4.70;;;21.70;39.30;;;;;;4952391;28;20120;-77
2022/04/17 10:56:27;;;;;;;5.32;4.82;;;21.20;41.70;;;;;;4936542;29;20043;-77
2022/04/17 10:58:59;;;;;;;4.53;3.97;;;21.40;41.40;;;;;;4925617;29;20052;-76
2022/04/17 11:01:49;;;;;;;4.87;4.43;;;21.80;39.90;;;;;;4937550;29;20039;-77
2022/04/17 11:04:26;;;;;;;5.10;4.60;;;22.20;36.80;;;;;;4916851;29;20285;-76
2022/04/17 11:07:04;;;;;;;5.82;4.80;;;21.60;40.00;;;;;;4918584;29;20080;-76
2022/04/17 11:09:30;;;;;;;5.05;4.55;;;21.70;41.80;;;;;;4935384;29;20062;-76
2022/04/17 11:12:10;;;;;;;5.57;4.80;;;22.00;40.50;;;;;;4931135;29;20036;-77
2022/04/17 11:14:38;;;;;;;4.57;4.18;;;22.30;39.00;;;;;;4917633;29;20044;-77
2022/04/17 11:17:08;;;;;;;10.45;4.88;;;22.60;40.40;;;;;;4917430;29;20044;-76
2022/04/17 11:19:39;;;;;;;5.05;4.32;;;22.80;40.00;;;;;;4916386;29;20068;-76
2022/04/17 11:22:07;;;;;;;6.00;4.40;;;22.80;40.40;;;;;;4916414;29;20122;-76
2022/04/17 11:24:54;;;;;;;5.28;3.88;;;23.00;39.00;;;;;;4917489;29;20088;-77
2022/04/17 11:27:32;;;;;;;4.88;3.97;;;23.20;37.80;;;;;;4920584;29;20583;-76
2022/04/17 11:29:58;;;;;;;4.53;3.75;;;23.40;38.70;;;;;;4929429;29;20439;-77
2022/04/17 11:32:27;;;;;;;5.35;4.28;;;23.40;38.50;;;;;;4916626;29;20055;-77
2022/04/17 11:34:54;;;;;;;6.82;4.05;;;23.60;38.50;;;;;;4916403;29;20418;-78
2022/04/17 11:37:23;;;;;;;4.30;3.90;;;23.80;37.80;;;;;;4918226;29;20123;-77
2022/04/17 11:39:50;;;;;;;5.63;3.70;;;24.10;37.60;;;;;;4921907;29;20032;-77
2022/04/17 11:42:15;;;;;;;4.38;3.97;;;24.10;35.90;;;;;;4935129;29;20031;-77
2022/04/17 11:44:42;;;;;;;4.32;3.92;;;24.10;36.70;;;;;;4935167;29;20111;-77
2022/04/17 11:47:13;;;;;;;4.97;4.25;;;24.20;36.80;;;;;;4931989;29;20044;-77
2022/04/17 11:49:39;;;;;;;4.50;4.10;;;24.10;36.30;;;;;;4900885;29;20048;-77
2022/04/17 11:52:12;;;;;;;4.45;4.05;;;24.20;35.90;;;;;;4916060;29;20040;-77
2022/04/17 11:54:38;;;;;;;5.13;3.92;;;24.20;35.70;;;;;;4915381;29;20541;-77
2022/04/17 11:57:04;;;;;;;5.95;3.55;;;24.10;35.20;;;;;;4916852;29;20076;-77
2022/04/17 11:59:49;;;;;;;5.50;3.42;;;24.10;36.60;;;;;;4916661;29;20082;-77
2022/04/17 12:02:19;;;;;;;4.30;3.90;;;24.20;34.70;;;;;;4929199;29;20044;-77
2022/04/17 12:04:47;;;;;;;4.05;3.30;;;24.40;36.20;;;;;;4916080;29;20047;-77
2022/04/17 12:07:18;;;;;;;4.55;3.67;;;24.70;36.70;;;;;;4915745;29;20340;-77
2022/04/17 12:09:46;;;;;;;4.32;3.50;;;24.80;32.30;;;;;;4920073;29;20056;-77
2022/04/17 12:12:19;;;;;;;3.80;3.20;;;24.60;34.50;;;;;;4915829;29;20044;-77
2022/04/17 12:14:46;;;;;;;4.15;3.38;;;24.80;35.00;;;;;;4915700;29;20083;-77
2022/04/17 12:17:14;;;;;;;3.88;3.47;;;24.90;34.00;;;;;;4915670;29;20452;-77
2022/04/17 12:19:49;;;;;;;3.83;3.13;;;24.80;34.40;;;;;;4920045;29;20063;-77
2022/04/17 12:22:17;;;;;;;4.07;3.42;;;25.00;33.40;;;;;;4915397;29;20139;-77
2022/04/17 12:24:44;;;;;;;4.50;3.30;;;25.00;33.70;;;;;;4915540;29;20402;-76
2022/04/17 12:27:10;;;;;;;3.92;3.00;;;25.20;34.40;;;;;;4899665;29;20169;-75
2022/04/17 12:29:42;;;;;;;4.53;3.40;;;25.20;32.70;;;;;;4923879;29;20055;-74
2022/04/17 12:32:20;;;;;;;5.15;3.25;;;25.10;32.50;;;;;;4931150;29;20074;-75
2022/04/17 12:34:46;;;;;;;3.40;3.10;;;25.20;30.00;;;;;;4953364;29;20102;-75
2022/04/17 12:37:32;;;;;;;4.30;3.25;;;24.90;30.80;;;;;;4930533;29;20048;-75
2022/04/17 12:40:12;;;;;;;3.67;3.10;;;24.80;30.20;;;;;;4927489;29;20040;-75
2022/04/17 12:42:39;;;;;;;3.88;3.22;;;24.60;31.20;;;;;;4934018;29;20040;-75
2022/04/17 12:45:07;;;;;;;4.03;3.20;;;24.40;33.20;;;;;;4934325;29;20039;-75
2022/04/17 12:47:33;;;;;;;4.03;3.25;;;24.60;32.90;;;;;;4917327;29;20032;-75
2022/04/17 12:50:03;;;;;;;4.97;3.55;;;25.00;32.00;;;;;;4932916;29;20047;-74
2022/04/17 12:52:28;;;;;;;4.32;3.60;;;25.10;33.10;;;;;;4933924;29;20040;-74
2022/04/17 12:54:56;;;;;;;5.10;3.67;;;25.30;33.60;;;;;;4925232;29;20044;-74
2022/04/17 12:57:22;;;;;;;4.80;3.83;;;25.50;32.70;;;;;;4915862;29;20087;-74
2022/04/17 12:59:51;;;;;;;4.15;3.70;;;25.80;32.50;;;;;;4914552;29;20047;-74
2022/04/17 13:02:19;;;;;;;3.97;3.38;;;25.90;33.90;;;;;;4927489;29;20135;-74
2022/04/17 13:04:46;;;;;;;3.42;3.10;;;26.10;33.50;;;;;;4917839;29;20443;-74
2022/04/17 13:07:16;;;;;;;3.63;2.95;;;26.30;31.30;;;;;;4931390;29;20050;-74
2022/04/17 13:09:52;;;;;;;3.38;2.97;;;26.30;31.10;;;;;;4933250;29;20059;-74
2022/04/17 13:12:36;;;;;;;3.63;3.10;;;26.10;30.50;;;;;;4929785;29;20123;-74
2022/04/17 13:15:05;;;;;;;4.43;3.55;;;25.90;32.90;;;;;;4920762;29;20118;-74
2022/04/17 13:17:51;;;;;;;4.72;3.33;;;25.90;30.90;;;;;;4925822;29;20054;-75
2022/04/17 13:20:19;;;;;;;4.25;3.17;;;25.80;32.10;;;;;;4929853;29;20360;-75